createdAt,value
2023-04-19T00:02:21.939Z,15.67
2023-04-19T00:04:49.297Z,15.07
2023-04-19T00:07:18.411Z,16.02
2023-04-19T00:09:45.379Z,15.70
2023-04-19T00:12:12.301Z,15.43
2023-04-19T00:14:39.237Z,16.25
2023-04-19T00:17:06.456Z,16.25
2023-04-19T00:19:33.410Z,16.30
2023-04-19T00:22:00.839Z,16.45
2023-04-19T00:24:28.103Z,16.05
2023-04-19T00:26:55.161Z,15.73
2023-04-19T00:29:22.130Z,16.65
2023-04-19T00:31:49.078Z,16.15
2023-04-19T00:34:16.299Z,16.73
2023-04-19T00:36:43.461Z,16.83
2023-04-19T00:39:10.410Z,16.38
2023-04-19T00:41:37.328Z,16.92
2023-04-19T00:44:04.392Z,17.92
2023-04-19T00:46:31.398Z,18.23
2023-04-19T00:48:58.442Z,17.70
2023-04-19T00:51:26.940Z,17.63
2023-04-19T00:53:54.007Z,17.38
2023-04-19T00:56:22.519Z,17.53
2023-04-19T00:58:49.557Z,18.25
2023-04-19T01:01:16.859Z,18.35
2023-04-19T01:03:44.594Z,18.65
2023-04-19T01:06:11.872Z,18.58
2023-04-19T01:08:39.858Z,18.90
2023-04-19T01:11:08.200Z,18.40
2023-04-19T01:13:35.247Z,18.08
2023-04-19T01:16:02.269Z,18.98
2023-04-19T01:18:32.762Z,18.67
2023-04-19T01:20:59.759Z,17.83
2023-04-19T01:23:26.737Z,18.27
2023-04-19T01:25:53.727Z,17.95
2023-04-19T01:28:20.784Z,18.20
2023-04-19T01:30:49.191Z,18.23
2023-04-19T01:33:16.796Z,18.52
2023-04-19T01:35:43.704Z,17.93
2023-04-19T01:38:10.819Z,17.25
2023-04-19T01:40:37.831Z,16.85
2023-04-19T01:43:04.773Z,17.08
2023-04-19T01:45:33.938Z,16.88
2023-04-19T01:48:04.750Z,16.40
2023-04-19T01:50:32.041Z,16.73
2023-04-19T01:52:59.568Z,17.27
2023-04-19T01:55:26.574Z,17.13
2023-04-19T01:57:54.848Z,16.57
2023-04-19T02:00:22.562Z,16.50
2023-04-19T02:02:49.942Z,15.68
2023-04-19T02:05:17.087Z,15.20
2023-04-19T02:07:44.043Z,15.87
2023-04-19T02:10:11.568Z,15.73
2023-04-19T02:12:38.608Z,16.10
2023-04-19T02:15:06.228Z,14.93
2023-04-19T02:17:33.221Z,15.43
2023-04-19T02:20:00.274Z,15.80
2023-04-19T02:22:27.264Z,15.67
2023-04-19T02:24:54.241Z,15.85
2023-04-19T02:27:21.248Z,15.80
2023-04-19T02:29:48.271Z,15.77
2023-04-19T02:32:15.338Z,16.65
2023-04-19T02:34:42.341Z,15.07
2023-04-19T02:37:09.314Z,14.45
2023-04-19T02:39:36.202Z,15.40
2023-04-19T02:42:03.218Z,15.30
2023-04-19T02:44:30.433Z,15.50
2023-04-19T02:46:57.751Z,15.10
2023-04-19T02:49:24.673Z,14.97
2023-04-19T02:51:52.802Z,15.13
2023-04-19T02:54:19.759Z,14.80
2023-04-19T02:56:46.737Z,15.30
2023-04-19T02:59:13.719Z,14.75
2023-04-19T03:01:40.764Z,15.23
2023-04-19T03:04:07.815Z,14.37
2023-04-19T03:06:34.808Z,13.80
2023-04-19T03:09:01.785Z,14.48
2023-04-19T03:11:28.802Z,14.50
2023-04-19T03:13:55.786Z,15.23
2023-04-19T03:16:23.073Z,13.73
2023-04-19T03:18:50.083Z,13.85
2023-04-19T03:21:17.135Z,13.55
2023-04-19T03:23:44.237Z,14.00
2023-04-19T03:26:11.150Z,13.52
2023-04-19T03:28:38.188Z,14.00
2023-04-19T03:31:05.154Z,13.07
2023-04-19T03:33:32.148Z,13.70
2023-04-19T03:35:59.219Z,12.95
2023-04-19T03:38:26.213Z,13.05
2023-04-19T03:40:53.283Z,12.93
2023-04-19T03:43:20.309Z,12.13
2023-04-19T03:45:47.321Z,12.30
2023-04-19T03:48:14.278Z,11.80
2023-04-19T03:50:41.225Z,12.20
2023-04-19T03:53:08.254Z,11.13
2023-04-19T03:55:35.295Z,11.88
2023-04-19T03:58:02.332Z,11.18
2023-04-19T04:00:29.304Z,10.82
2023-04-19T04:02:56.376Z,11.15
2023-04-19T04:05:23.646Z,10.82
2023-04-19T04:07:50.752Z,10.30
2023-04-19T04:10:17.781Z,11.00
2023-04-19T04:12:44.726Z,10.05
2023-04-19T04:15:11.734Z,11.23
2023-04-19T04:17:38.751Z,10.30
2023-04-19T04:20:07.332Z,10.20
2023-04-19T04:22:34.490Z,10.68
2023-04-19T04:25:02.221Z,10.05
2023-04-19T04:27:29.149Z,10.27
2023-04-19T04:29:56.719Z,11.17
2023-04-19T04:32:23.832Z,10.95
2023-04-19T04:34:51.246Z,9.97
2023-04-19T04:37:18.316Z,9.75
2023-04-19T04:39:45.347Z,9.40
2023-04-19T04:42:13.475Z,9.52
2023-04-19T04:44:41.495Z,9.65
2023-04-19T04:47:08.534Z,9.63
2023-04-19T04:49:36.252Z,8.73
2023-04-19T04:52:03.378Z,8.98
2023-04-19T04:54:30.434Z,8.63
2023-04-19T04:56:58.623Z,8.93
2023-04-19T04:59:25.684Z,8.20
2023-04-19T05:01:52.758Z,8.23
2023-04-19T05:04:19.798Z,8.40
2023-04-19T05:06:46.830Z,9.23
2023-04-19T05:09:13.805Z,8.43
2023-04-19T05:11:40.729Z,7.05
2023-04-19T05:14:07.736Z,6.85
2023-04-19T05:16:34.765Z,6.65
2023-04-19T05:19:01.819Z,7.28
2023-04-19T05:21:28.822Z,7.38
2023-04-19T05:23:55.778Z,6.80
2023-04-19T05:26:22.806Z,7.00
2023-04-19T05:28:49.773Z,7.27
2023-04-19T05:31:16.888Z,6.35
2023-04-19T05:33:43.856Z,6.80
2023-04-19T05:36:10.833Z,6.07
2023-04-19T05:38:37.791Z,5.50
2023-04-19T05:41:05.391Z,7.13
2023-04-19T05:43:32.384Z,5.30
2023-04-19T05:45:59.513Z,6.00
2023-04-19T05:48:26.579Z,5.53
2023-04-19T05:50:55.043Z,5.47
2023-04-19T05:53:22.008Z,6.93
2023-04-19T05:55:50.851Z,5.18
2023-04-19T05:58:21.013Z,5.65
2023-04-19T06:00:48.949Z,6.75
2023-04-19T06:03:16.252Z,4.80
2023-04-19T06:05:43.520Z,5.45
2023-04-19T06:08:11.469Z,4.97
2023-04-19T06:10:51.761Z,5.93
2023-04-19T06:13:21.462Z,7.80
2023-04-19T06:15:48.978Z,4.80
2023-04-19T06:18:19.721Z,4.70
2023-04-19T06:20:47.484Z,4.70
2023-04-19T06:23:14.987Z,6.35
2023-04-19T06:25:42.581Z,5.45
2023-04-19T06:28:09.601Z,4.88
2023-04-19T06:30:36.586Z,5.05
2023-04-19T06:33:03.646Z,6.03
2023-04-19T06:35:31.467Z,5.88
2023-04-19T06:37:58.998Z,5.72
2023-04-19T06:40:29.403Z,4.72
2023-04-19T06:42:56.442Z,5.65
2023-04-19T06:45:23.520Z,5.40
2023-04-19T06:47:51.056Z,6.63
2023-04-19T06:50:18.337Z,6.10
2023-04-19T06:52:45.357Z,6.28
2023-04-19T06:55:12.609Z,6.45
2023-04-19T06:57:39.618Z,4.43
2023-04-19T07:00:07.851Z,5.17
2023-04-19T07:02:34.967Z,4.05
2023-04-19T07:05:02.137Z,5.18
2023-04-19T07:07:29.035Z,4.50
2023-04-19T07:09:55.965Z,8.63
2023-04-19T07:12:22.907Z,5.10
2023-04-19T07:14:50.367Z,3.58
2023-04-19T07:17:18.384Z,4.57
2023-04-19T07:19:48.584Z,3.90
2023-04-19T07:22:15.767Z,4.15
2023-04-19T07:24:44.507Z,3.60
2023-04-19T07:27:12.116Z,4.60
2023-04-19T07:29:41.164Z,3.55
2023-04-19T07:32:08.293Z,3.97
2023-04-19T07:34:37.677Z,4.50
2023-04-19T07:37:04.619Z,3.53
2023-04-19T07:39:31.607Z,4.72
2023-04-19T07:41:58.734Z,4.13
2023-04-19T07:44:25.720Z,4.90
2023-04-19T07:46:52.974Z,4.72
2023-04-19T07:49:20.088Z,4.50
2023-04-19T07:51:47.017Z,3.67
2023-04-19T07:54:16.347Z,3.78
2023-04-19T07:56:43.644Z,4.82
2023-04-19T07:59:10.790Z,5.30
2023-04-19T08:01:38.138Z,3.40
2023-04-19T08:04:05.747Z,3.30
2023-04-19T08:06:33.330Z,4.10
2023-04-19T08:09:00.367Z,4.03
2023-04-19T08:11:27.429Z,3.50
2023-04-19T08:14:06.804Z,4.45
2023-04-19T08:19:08.599Z,3.65
2023-04-19T08:21:41.337Z,7.17
2023-04-19T08:24:08.841Z,2.90
2023-04-19T08:26:35.833Z,2.80
2023-04-19T08:29:02.783Z,2.90
2023-04-19T08:31:29.812Z,2.63
2023-04-19T08:33:58.479Z,3.50
2023-04-19T08:36:37.003Z,3.35
2023-04-19T08:39:14.721Z,3.30
2023-04-19T08:41:48.222Z,4.45
2023-04-19T08:44:25.260Z,3.03
2023-04-19T08:47:01.123Z,3.78
2023-04-19T08:49:28.796Z,2.70
2023-04-19T08:51:57.836Z,2.78
2023-04-19T08:54:24.849Z,2.50
2023-04-19T08:56:53.101Z,2.85
2023-04-19T08:59:20.484Z,3.30
2023-04-19T09:01:47.894Z,2.80
2023-04-19T09:04:27.084Z,2.30
2023-04-19T09:07:01.409Z,2.47
2023-04-19T09:11:59.803Z,3.30
2023-04-19T09:14:27.552Z,3.10
2023-04-19T09:16:55.099Z,2.67
2023-04-19T09:19:25.358Z,2.55
2023-04-19T09:21:54.525Z,2.42
2023-04-19T09:27:35.119Z,2.35
2023-04-19T09:30:03.749Z,2.05
2023-04-19T09:32:46.894Z,2.10
2023-04-19T09:35:14.307Z,2.33
2023-04-19T09:38:01.740Z,6.55
2023-04-19T09:40:28.854Z,2.92
2023-04-19T09:43:08.713Z,3.72
2023-04-19T09:45:44.558Z,3.17
2023-04-19T09:48:12.997Z,2.42
2023-04-19T09:50:57.479Z,3.70
2023-04-19T09:53:33.929Z,2.47
2023-04-19T09:56:03.026Z,3.28
2023-04-19T10:01:13.464Z,5.28
2023-04-19T10:03:43.362Z,2.87
2023-04-19T10:06:20.456Z,2.50
2023-04-19T10:09:00.719Z,5.67
2023-04-19T10:11:31.286Z,3.28
2023-04-19T10:14:00.478Z,4.17
2023-04-19T10:16:27.733Z,2.67
2023-04-19T10:18:55.287Z,3.47
2023-04-19T10:21:22.453Z,3.85
2023-04-19T10:23:50.433Z,4.40
2023-04-19T10:26:17.505Z,4.00
2023-04-19T10:28:44.544Z,4.05
2023-04-19T10:31:16.062Z,3.28
2023-04-19T10:33:43.218Z,4.47
2023-04-19T10:36:11.939Z,4.50
2023-04-19T10:38:49.474Z,4.15
2023-04-19T10:41:18.719Z,4.88
2023-04-19T10:43:55.291Z,3.00
2023-04-19T10:46:22.305Z,3.95
2023-04-19T10:48:54.737Z,4.10
2023-04-19T10:51:44.159Z,4.45
2023-04-19T10:54:31.551Z,3.17
2023-04-19T10:57:10.159Z,4.80
2023-04-19T10:59:38.314Z,3.47
2023-04-19T11:02:27.937Z,3.95
2023-04-19T11:04:55.180Z,3.95
2023-04-19T11:07:22.427Z,3.10
2023-04-19T11:09:51.022Z,4.33
2023-04-19T11:12:20.918Z,3.05
2023-04-19T11:14:53.186Z,4.22
2023-04-19T11:17:28.830Z,4.75
2023-04-19T11:19:56.823Z,4.53
2023-04-19T11:22:34.393Z,3.92
2023-04-19T11:25:17.301Z,7.38
2023-04-19T11:27:46.940Z,3.80
2023-04-19T11:30:20.092Z,4.32
2023-04-19T11:32:52.911Z,4.45
2023-04-19T11:35:21.631Z,4.38
2023-04-19T11:37:48.879Z,6.00
2023-04-19T11:40:17.149Z,4.00
2023-04-19T11:42:45.283Z,6.88
2023-04-19T11:45:25.932Z,3.88
2023-04-19T11:47:56.046Z,3.73
2023-04-19T11:50:35.217Z,5.07
2023-04-19T11:53:12.046Z,4.43
2023-04-19T11:55:39.210Z,3.30
2023-04-19T11:58:12.007Z,5.65
2023-04-19T12:00:39.101Z,3.35
2023-04-19T12:03:06.477Z,4.70
2023-04-19T12:05:34.097Z,4.97
2023-04-19T12:08:03.334Z,4.85
2023-04-19T12:10:31.572Z,3.20
2023-04-19T12:12:58.940Z,3.87
2023-04-19T12:15:42.952Z,2.83
2023-04-19T12:18:10.065Z,4.18
2023-04-19T12:20:38.814Z,5.07
2023-04-19T12:23:06.890Z,3.35
2023-04-19T12:25:34.451Z,2.50
2023-04-19T12:28:03.627Z,4.45
2023-04-19T12:30:30.609Z,4.22
2023-04-19T12:32:58.875Z,2.92
2023-04-19T12:35:27.616Z,2.75
2023-04-19T12:37:56.194Z,3.97
2023-04-19T12:40:23.768Z,2.75
2023-04-19T12:42:50.991Z,3.75
2023-04-19T12:45:18.636Z,3.38
2023-04-19T12:47:47.231Z,3.20
2023-04-19T12:50:16.086Z,3.42
2023-04-19T12:52:44.399Z,4.43
2023-04-19T12:55:11.372Z,3.85
2023-04-19T12:57:38.317Z,4.63
2023-04-19T13:00:07.293Z,4.22
2023-04-19T13:02:34.954Z,3.25
2023-04-19T13:05:02.589Z,2.90
2023-04-19T13:07:29.605Z,2.40
2023-04-19T13:09:57.051Z,2.55
2023-04-19T13:12:24.241Z,4.57
2023-04-19T13:14:52.486Z,5.13
2023-04-19T13:17:20.380Z,3.00
2023-04-19T13:19:47.561Z,2.35
2023-04-19T13:22:15.438Z,5.28
2023-04-19T13:24:42.514Z,4.22
2023-04-19T13:27:09.663Z,2.40
2023-04-19T13:29:36.857Z,3.17
2023-04-19T13:32:07.216Z,5.03
2023-04-19T13:34:35.468Z,5.03
2023-04-19T13:37:02.468Z,5.25
2023-04-19T13:39:29.446Z,2.92
2023-04-19T13:41:56.662Z,3.30
2023-04-19T13:44:25.225Z,4.53
2023-04-19T13:46:52.253Z,3.47
2023-04-19T13:49:19.345Z,4.38
2023-04-19T13:51:50.039Z,4.50
2023-04-19T13:54:18.841Z,4.85
2023-04-19T13:56:46.400Z,3.75
2023-04-19T13:59:13.384Z,3.17
2023-04-19T14:01:40.982Z,5.20
2023-04-19T14:04:08.149Z,3.70
2023-04-19T14:06:35.387Z,3.20
2023-04-19T14:09:02.360Z,4.80
2023-04-19T14:11:29.426Z,5.03
2023-04-19T14:13:56.426Z,3.50
2023-04-19T14:16:25.219Z,4.15
2023-04-19T14:18:52.592Z,3.95
2023-04-19T14:21:21.774Z,5.07
2023-04-19T14:23:48.752Z,3.78
2023-04-19T14:26:15.722Z,4.80
2023-04-19T14:28:42.646Z,5.55
2023-04-19T14:31:09.617Z,5.15
2023-04-19T14:33:36.678Z,3.70
2023-04-19T14:36:04.160Z,4.60
2023-04-19T14:38:31.281Z,6.25
2023-04-19T14:40:58.302Z,4.28
2023-04-19T14:43:25.322Z,3.33
2023-04-19T14:45:52.894Z,3.70
2023-04-19T14:48:22.059Z,4.30
2023-04-19T14:50:49.366Z,4.15
2023-04-19T14:53:16.365Z,4.30
2023-04-19T14:55:43.342Z,4.20
2023-04-19T14:58:10.370Z,4.03
2023-04-19T15:00:37.386Z,4.70
2023-04-19T15:03:04.959Z,5.75
2023-04-19T15:05:34.635Z,6.10
2023-04-19T15:08:01.701Z,8.70
2023-04-19T15:10:28.707Z,4.72
2023-04-19T15:12:55.745Z,5.30
2023-04-19T15:15:22.721Z,3.90
2023-04-19T15:17:49.787Z,3.72
2023-04-19T15:20:17.036Z,4.15
2023-04-19T15:22:43.922Z,3.80
2023-04-19T15:25:10.910Z,3.70
2023-04-19T15:27:37.999Z,4.85
2023-04-19T15:30:06.173Z,4.20
2023-04-19T15:32:36.441Z,5.25
2023-04-19T15:35:06.418Z,4.72
2023-04-19T15:37:33.433Z,4.65
2023-04-19T15:40:00.725Z,5.07
2023-04-19T15:42:27.765Z,4.55
2023-04-19T15:44:54.726Z,4.75
2023-04-19T15:47:21.704Z,5.28
2023-04-19T15:49:48.685Z,4.28
2023-04-19T15:52:15.692Z,5.10
2023-04-19T15:54:42.704Z,3.92
2023-04-19T15:57:09.641Z,3.88
2023-04-19T15:59:36.623Z,3.80
2023-04-19T16:02:03.742Z,3.72
2023-04-19T16:04:31.322Z,4.63
2023-04-19T16:06:59.285Z,3.28
2023-04-19T16:09:26.804Z,4.65
2023-04-19T16:11:53.698Z,4.00
2023-04-19T16:14:20.727Z,3.60
2023-04-19T16:16:48.172Z,4.50
2023-04-19T16:19:15.428Z,3.45
2023-04-19T16:21:42.509Z,5.47
2023-04-19T16:24:09.507Z,4.40
2023-04-19T16:26:36.491Z,3.60
2023-04-19T16:29:03.461Z,4.43
2023-04-19T16:31:30.721Z,3.42
2023-04-19T16:33:57.743Z,3.80
2023-04-19T16:36:25.082Z,5.78
2023-04-19T16:38:52.158Z,4.45
2023-04-19T16:41:21.041Z,2.55
2023-04-19T16:43:48.041Z,2.55
2023-04-19T16:46:15.416Z,3.97
2023-04-19T16:48:42.461Z,3.38
2023-04-19T16:51:09.430Z,3.97
2023-04-19T16:53:36.363Z,2.85
2023-04-19T16:56:03.686Z,3.15
2023-04-19T16:58:31.229Z,4.55
2023-04-19T17:00:58.329Z,3.20
2023-04-19T17:03:25.834Z,4.10
2023-04-19T17:05:52.902Z,4.35
2023-04-19T17:08:21.639Z,2.20
2023-04-19T17:10:48.666Z,2.53
2023-04-19T17:13:15.696Z,4.53
2023-04-19T17:15:42.736Z,3.58
2023-04-19T17:18:09.776Z,3.97
2023-04-19T17:20:36.859Z,4.70
2023-04-19T17:23:03.758Z,3.53
2023-04-19T17:25:30.837Z,4.70
2023-04-19T17:27:57.823Z,2.97
2023-04-19T17:30:24.842Z,4.35
2023-04-19T17:32:52.127Z,4.30
2023-04-19T17:35:19.143Z,2.67
2023-04-19T17:37:46.178Z,3.38
2023-04-19T17:40:13.204Z,3.45
2023-04-19T17:42:40.247Z,4.45
2023-04-19T17:45:11.019Z,3.63
2023-04-19T17:47:39.402Z,8.15
2023-04-19T17:50:11.753Z,3.80
2023-04-19T17:52:39.252Z,3.25
2023-04-19T17:55:06.795Z,4.47
2023-04-19T17:57:34.206Z,4.55
2023-04-19T18:00:04.362Z,3.35
2023-04-19T18:02:31.506Z,3.95
2023-04-19T18:04:58.893Z,4.80
2023-04-19T18:07:25.999Z,3.50
2023-04-19T18:09:52.964Z,6.00
2023-04-19T18:12:20.026Z,2.65
2023-04-19T18:14:47.090Z,3.65
2023-04-19T18:17:14.113Z,3.42
2023-04-19T18:19:41.239Z,5.05
2023-04-19T18:22:08.192Z,4.23
2023-04-19T18:24:35.108Z,3.30
2023-04-19T18:27:03.241Z,4.90
2023-04-19T18:29:30.189Z,4.65
2023-04-19T18:31:57.162Z,5.88
2023-04-19T18:34:24.284Z,6.40
2023-04-19T18:36:58.707Z,5.55
2023-04-19T18:39:26.043Z,5.40
2023-04-19T18:41:53.031Z,3.72
2023-04-19T18:44:44.332Z,5.50
2023-04-19T18:47:06.970Z,4.30
2023-04-19T18:49:34.271Z,6.03
2023-04-19T18:52:01.253Z,4.47
2023-04-19T18:54:28.204Z,5.20
2023-04-19T18:59:25.507Z,5.13
2023-04-19T19:01:52.667Z,5.57
2023-04-19T19:04:39.118Z,4.63
2023-04-19T19:07:22.989Z,4.85
2023-04-19T19:09:56.750Z,7.07
2023-04-19T19:12:24.011Z,5.20
2023-04-19T19:14:51.264Z,8.10
2023-04-19T19:17:18.397Z,5.03
2023-04-19T19:19:45.482Z,5.93
2023-04-19T19:22:25.082Z,7.03
2023-04-19T19:24:54.288Z,6.95
2023-04-19T19:27:21.314Z,5.55
2023-04-19T19:29:48.562Z,5.22
2023-04-19T19:32:15.998Z,4.88
2023-04-19T19:34:54.432Z,6.63
2023-04-19T19:37:22.279Z,5.25
2023-04-19T19:39:49.694Z,6.70
2023-04-19T19:42:17.582Z,5.13
2023-04-19T19:44:44.685Z,4.90
2023-04-19T19:47:12.627Z,4.80
2023-04-19T19:52:09.642Z,5.32
2023-04-19T19:54:38.623Z,4.28
2023-04-19T19:59:35.704Z,4.05
2023-04-19T20:02:03.515Z,4.13
2023-04-19T20:04:31.752Z,4.50
2023-04-19T20:09:28.947Z,6.10
2023-04-19T20:11:56.160Z,4.38
2023-04-19T20:14:23.660Z,3.75
2023-04-19T20:16:51.736Z,4.90
2023-04-19T20:19:19.356Z,6.03
2023-04-19T20:21:47.124Z,5.30
2023-04-19T20:24:14.062Z,4.47
2023-04-19T20:26:41.081Z,5.45
2023-04-19T20:29:08.016Z,4.40
2023-04-19T20:31:35.009Z,5.70
2023-04-19T20:34:01.976Z,4.82
2023-04-19T20:36:31.788Z,4.70
2023-04-19T20:38:59.270Z,4.18
2023-04-19T20:41:26.960Z,4.10
2023-04-19T20:43:56.962Z,4.53
2023-04-19T20:46:24.039Z,5.20
2023-04-19T20:48:51.055Z,5.22
2023-04-19T20:51:18.043Z,4.93
2023-04-19T20:53:45.092Z,4.75
2023-04-19T20:56:12.251Z,5.35
2023-04-19T20:58:40.470Z,4.07
2023-04-19T21:01:07.623Z,4.05
2023-04-19T21:03:34.986Z,3.63
2023-04-19T21:06:02.133Z,5.60
2023-04-19T21:08:29.147Z,5.22
2023-04-19T21:10:56.186Z,5.25
2023-04-19T21:13:23.127Z,5.70
2023-04-19T21:15:50.356Z,3.70
2023-04-19T21:18:17.674Z,4.83
2023-04-19T21:20:44.720Z,4.68
2023-04-19T21:23:11.732Z,5.18
2023-04-19T21:25:38.728Z,3.75
2023-04-19T21:28:05.686Z,5.00
2023-04-19T21:30:32.728Z,4.77
2023-04-19T21:32:59.760Z,3.92
2023-04-19T21:35:26.716Z,3.72
2023-04-19T21:37:53.672Z,3.90
2023-04-19T21:40:20.814Z,6.53
2023-04-19T21:42:47.827Z,3.80
2023-04-19T21:45:14.757Z,3.13
2023-04-19T21:47:41.713Z,3.67
2023-04-19T21:50:09.296Z,4.22
2023-04-19T21:52:36.278Z,4.70
2023-04-19T21:55:03.475Z,4.23
2023-04-19T21:57:31.044Z,3.70
2023-04-19T21:59:58.172Z,3.35
2023-04-19T22:02:25.393Z,3.83
2023-04-19T22:04:53.803Z,4.13
2023-04-19T22:07:23.822Z,4.05
2023-04-19T22:09:50.964Z,4.43
2023-04-19T22:12:18.782Z,3.50
2023-04-19T22:14:45.794Z,4.30
2023-04-19T22:17:12.855Z,6.05
2023-04-19T22:19:39.920Z,6.10
2023-04-19T22:22:06.945Z,5.18
2023-04-19T22:24:35.888Z,4.38
2023-04-19T22:27:06.347Z,5.90
2023-04-19T22:29:34.403Z,3.55
2023-04-19T22:32:01.371Z,4.95
2023-04-19T22:34:28.388Z,3.97
2023-04-19T22:36:55.390Z,2.97
2023-04-19T22:39:22.404Z,3.88
2023-04-19T22:41:49.330Z,5.25
2023-04-19T22:44:16.256Z,3.43
2023-04-19T22:46:43.855Z,3.20
2023-04-19T22:49:10.878Z,3.55
2023-04-19T22:51:38.295Z,3.93
2023-04-19T22:54:05.285Z,10.38
2023-04-19T22:56:32.358Z,6.00
2023-04-19T22:58:59.646Z,4.93
2023-04-19T23:01:26.779Z,5.30
2023-04-19T23:03:53.760Z,4.40
2023-04-19T23:06:20.680Z,4.05
2023-04-19T23:08:47.664Z,6.28
2023-04-19T23:11:14.621Z,4.57
2023-04-19T23:13:41.604Z,4.00
2023-04-19T23:16:11.770Z,4.15
2023-04-19T23:18:38.803Z,5.47
2023-04-19T23:21:06.060Z,4.72
2023-04-19T23:23:33.116Z,4.22
2023-04-19T23:26:00.179Z,4.93
2023-04-19T23:28:27.167Z,5.00
2023-04-19T23:30:54.196Z,4.35
2023-04-19T23:33:21.350Z,4.77
2023-04-19T23:35:48.340Z,5.75
2023-04-19T23:38:15.851Z,5.30
2023-04-19T23:40:42.877Z,5.93
2023-04-19T23:43:09.857Z,4.75
2023-04-19T23:45:36.818Z,4.55
2023-04-19T23:48:04.038Z,4.53
2023-04-19T23:50:31.012Z,5.32
2023-04-19T23:52:58.174Z,5.53
2023-04-19T23:55:25.486Z,3.65
2023-04-19T23:57:52.474Z,4.95
